ADDS METAR Data INFO
IDs: Format: Raw Decoded Include TAF

Data at: 1554 UTC 12 Dec 2017

PAIN 121456Z AUTO 20005KT 10SM FEW120 02/M06 A2964 RMK AO2 SLP063 T00171061 55001 FZRANO
PAIN 121356Z AUTO VRB05KT 10SM BKN110 03/M06 A2963 RMK AO2 SLP059 T00281056
PAIN 121256Z AUTO VRB04KT 10SM SCT120 02/M06 A2963 RMK AO2 SLP060 T00221061 FZRANO
PAIN 121156Z AUTO 19005KT 10SM CLR 02/M06 A2964 RMK AO2 SLP064 70001 T00171061 10033 20017 58006 FZRANO
PAIN 121056Z AUTO VRB03KT 10SM CLR 02/M06 A2966 RMK AO2 SLP071 T00221061 FZRANO
PAIN 120956Z AUTO 16005KT 10SM CLR 02/M06 A2965 RMK AO2 SLP066 T00171061 FZRANO
PAIN 120856Z AUTO 16008KT 120V200 10SM OVC060 03/M06 A2966 RMK AO2 SLP070 T00281061 400670006 51006
PAIN 120756Z AUTO VRB05KT 10SM OVC060 02/M06 A2966 RMK AO2 SLP069 T00221056 FZRANO
PAIN 120656Z AUTO VRB05KT 10SM OVC060 02/M05 A2965 RMK AO2 SLP067 T00221050 FZRANO
PAIN 120556Z AUTO 14009G17KT 10SM OVC060 03/M05 A2964 RMK AO2 SLP061 60000 T00331050 10039 20028 53025
PAIN 120456Z AUTO 16006G15KT 10SM OVC065 03/M05 A2961 RMK AO2 SLP049 T00331050
PAIN 120356Z AUTO 17010G19KT 10SM BKN065 04/M06 A2959 RMK AO2 SLP042 T00391056
PAIN 120256Z AUTO 15010G18KT 10SM SCT060 04/M05 A2956 RMK AO2 SLP033 60000 T00391050 51023
PAIN 120156Z AUTO 15012G22KT 10SM BKN060 04/M04 A2954 RMK AO2 SLP027 T00391044
PAIN 120056Z AUTO 14009G21KT 10SM OVC055 04/M03 A2952 RMK AO2 RAE08 SLP018 P0000 T00391033
PAIN 112356Z AUTO 16008G18KT 120V190 10SM -RA FEW038 OVC049 03/M02 A2949 RMK AO2 SLP011 P0000 60001 T00331017 10050 20022 51045
PAIN 112256Z AUTO 17012G24KT 10SM -RA FEW026 BKN038 OVC048 03/M01 A2946 RMK AO2 SLP002 P0001 T00281006
PAIN 112233Z AUTO 16011G15KT 10SM -RA BKN030 BKN043 OVC050 03/M01 A2944 RMK AO2 P0001
PAIN 112212Z AUTO 18008G14KT 10SM -RA FEW020 OVC029 02/00 A2942 RMK AO2 P0001 FZRANO
PAIN 112156Z AUTO 20007G15KT 10SM -RA SCT022 OVC031 02/00 A2941 RMK AO2 UPB38E43 SLP987 P0000 T00220000 FZRANO
PAIN 112131Z AUTO 20011G21KT 9SM -RA SCT023 BKN029 OVC035 02/00 A2939 RMK AO2 P0000 FZRANO
PAIN 112056Z AUTO 18009G18KT 110V200 10SM -RA BKN040 OVC055 03/M02 A2935 RMK AO2 RAB1959 SLP965 P0000 60000 T00331017 51062
PAIN 111956Z AUTO 18006KT 10SM FEW045 OVC055 04/M02 A2931 RMK AO2 RAE45 PRESRR SLP951 P0000 T00391022
PAIN 111856Z AUTO 19011G22KT 10SM -RA BKN050 OVC060 04/M03 A2923 RMK AO2 RAB47 PRESRR SLP923 P0000 T00441028
PAIN 111756Z AUTO 18006KT 10SM OVC050 05/M03 A2916 RMK AO2 PRESRR SLP899 T00501028 10067 20039 53053
PAIN 111656Z AUTO 18008G16KT 150V210 10SM OVC060 06/M03 A2910 RMK AO2 PRESRR SLP878 T00611028
PAIN 111556Z AUTO 18011G18KT 10SM BKN050 OVC065 07/M03 A2904 RMK AO2 PRESRR SLP856 T00671028
PAIN 111456Z AUTO 18013G23KT 10SM BKN055 BKN070 07/M02 A2899 RMK AO2 PK WND 16027/1417 SLP839 T00671022 56019
PAIN 111356Z AUTO 19010G17KT 10SM OVC050 06/M03 A2900 RMK AO2 SLP842 T00611028
PAIN 111256Z AUTO 18011G22KT 10SM BKN055 06/M02 A2902 RMK AO2 SLP847 T00611022
PAIN 111156Z AUTO 21008KT 10SM BKN060 04/M03 A2905 RMK AO2 SLP860 T00391028 10039 21011 56044
PAIN 110956Z AUTO 22005KT 10SM SCT055 01/M04 A2913 RMK AO2 SLP888 T00111044 FZRANO
PAIN 110856Z AUTO 00000KT 10SM CLR 01/M05 A2919 RMK AO2 SLP909 T00111050 400441128 56055 FZRANO
PAIN 110756Z AUTO 00000KT 10SM BKN075 OVC090 M01/M04 A2923 RMK AO2 SLP924 T10111044 FZRANO
PAIN 110656Z AUTO 35003KT 10SM OVC095 M01/M04 A2929 RMK AO2 SLP946 T10111044 FZRANO
PAIN 110556Z AUTO 00000KT 10SM OVC075 M01/M04 A2936 RMK AO2 SLP969 T10111044 10033 21011 58053 FZRANO
PAIN 110456Z AUTO 00000KT 10SM BKN100 M01/M05 A2944 RMK AO2 SLP995 T10111050 FZRANO
PAIN 110356Z AUTO 26004KT 10SM CLR 01/M06 A2948 RMK AO2 SLP010 T00111061 FZRANO